Time;durP1;ratioP1;P1;durP2;ratioP2;P2;SDS_P1;SDS_P2;PMS_P1;PMS_P2;Temp;Humidity;BMP_temperature;BMP_pressure;BME280_temperature;BME280_humidity;BME280_pressure;Samples;Min_cycle;Max_cycle;Signal;HPM_P1;HPM_P2
2023/10/17 00:01:12;;;;;;;11.38;7.47;;;;;;;4.87;nan;102264.75;5015162;28;20041;-84
2023/10/17 00:03:37;;;;;;;14.25;6.85;;;;;;;4.86;nan;102255.13;5033023;28;20385;-84
2023/10/17 00:06:06;;;;;;;20.83;7.68;;;;;;;4.88;nan;102253.25;5033129;28;20037;-84
2023/10/17 00:08:35;;;;;;;15.82;7.35;;;;;;;4.88;nan;102253.25;5015983;28;20080;-84
2023/10/17 00:11:07;;;;;;;16.80;7.78;;;;;;;4.89;nan;102249.72;5032991;28;20036;-86
2023/10/17 00:13:39;;;;;;;14.48;7.75;;;;;;;4.91;nan;102245.22;5033259;28;20477;-84
2023/10/17 00:16:09;;;;;;;12.90;7.38;;;;;;;4.93;nan;102244.22;5052969;28;20041;-84
2023/10/17 00:18:34;;;;;;;11.93;7.15;;;;;;;4.93;nan;102246.03;5052889;28;20037;-84
2023/10/17 00:21:22;;;;;;;17.73;7.55;;;;;;;4.92;nan;102244.31;5052993;28;20033;-84
2023/10/17 00:23:50;;;;;;;14.68;7.05;;;;;;;4.92;nan;102242.50;5053404;28;20044;-84
2023/10/17 00:26:16;;;;;;;16.23;7.18;;;;;;;4.91;nan;102248.72;5053505;28;20167;-84
2023/10/17 00:28:43;;;;;;;12.60;7.40;;;;;;;4.91;nan;102239.94;5056449;28;20033;-84
2023/10/17 00:31:10;;;;;;;13.75;7.53;;;;;;;4.92;nan;102234.59;5056875;28;20115;-84
2023/10/17 00:33:37;;;;;;;12.95;7.47;;;;;;;4.92;nan;102231.13;5056697;28;20037;-84
2023/10/17 00:36:04;;;;;;;14.20;7.35;;;;;;;4.93;nan;102228.41;5056702;28;20055;-83
2023/10/17 00:38:35;;;;;;;16.10;7.10;;;;;;;4.95;nan;102225.69;5057102;28;20057;-84
2023/10/17 00:41:04;;;;;;;13.88;6.85;;;;;;;4.95;nan;102225.69;5057261;28;20029;-84
2023/10/17 00:43:30;;;;;;;14.32;6.50;;;;;;;4.95;nan;102225.69;5057012;28;20099;-84
2023/10/17 00:45:56;;;;;;;14.13;6.78;;;;;;;4.94;nan;102231.88;5056718;28;20052;-84
2023/10/17 00:48:23;;;;;;;11.68;5.93;;;;;;;4.92;nan;102221.41;5055055;28;20067;-84
2023/10/17 00:50:53;;;;;;;14.07;6.45;;;;;;;4.93;nan;102219.66;5056342;28;20082;-84
2023/10/17 00:53:20;;;;;;;17.15;6.55;;;;;;;4.93;nan;102219.66;5056928;28;20036;-84
2023/10/17 00:55:50;;;;;;;12.27;6.65;;;;;;;4.94;nan;102210.78;5056120;28;20358;-84
2023/10/17 00:58:18;;;;;;;15.77;6.50;;;;;;;4.94;nan;102218.69;5056555;28;20091;-84
2023/10/17 01:00:49;;;;;;;11.68;6.40;;;;;;;4.96;nan;102211.59;5055052;28;20071;-84
2023/10/17 01:03:16;;;;;;;11.52;5.65;;;;;;;4.97;nan;102208.03;5056372;28;20037;-84
2023/10/17 01:08:39;;;;;;;10.13;5.70;;;;;;;5.02;nan;102205.19;5056434;28;20094;-84
2023/10/17 01:11:09;;;;;;;11.30;5.65;;;;;;;5.04;nan;102209.44;5056217;28;20366;-84
2023/10/17 01:13:37;;;;;;;14.07;6.78;;;;;;;5.06;nan;102197.06;5037107;28;20167;-83
2023/10/17 01:16:10;;;;;;;17.90;6.38;;;;;;;5.09;nan;102198.69;5036247;28;20034;-84
2023/10/17 01:18:35;;;;;;;11.07;6.40;;;;;;;5.08;nan;102195.19;5036012;28;20028;-84
2023/10/17 01:21:01;;;;;;;13.57;6.55;;;;;;;5.11;nan;102188.94;5036198;28;20033;-84
2023/10/17 01:23:29;;;;;;;18.20;6.80;;;;;;;5.13;nan;102192.34;5035841;28;20026;-84
2023/10/17 01:25:56;;;;;;;13.35;6.35;;;;;;;5.15;nan;102192.28;5035815;28;20033;-84
2023/10/17 01:28:22;;;;;;;12.57;6.32;;;;;;;5.15;nan;102190.50;5035697;28;20068;-84
2023/10/17 01:30:48;;;;;;;13.80;6.40;;;;;;;5.16;nan;102186.94;5036132;28;20034;-84
2023/10/17 01:33:13;;;;;;;12.60;6.90;;;;;;;5.17;nan;102180.72;5035625;28;20532;-84
2023/10/17 01:35:43;;;;;;;9.60;5.90;;;;;;;5.16;nan;102184.28;5035652;28;20052;-84
2023/10/17 01:38:09;;;;;;;17.08;6.50;;;;;;;5.19;nan;102183.28;5018202;28;20091;-84
2023/10/17 01:40:34;;;;;;;14.93;6.78;;;;;;;5.19;nan;102189.41;5035483;28;20037;-84
2023/10/17 01:43:00;;;;;;;13.40;7.35;;;;;;;5.19;nan;102188.56;5035108;28;20183;-84
2023/10/17 01:45:27;;;;;;;17.98;6.57;;;;;;;5.19;nan;102178.88;5035132;28;20045;-84
2023/10/17 01:47:53;;;;;;;16.17;6.25;;;;;;;5.18;nan;102178.94;5035437;28;20115;-84
2023/10/17 01:50:25;;;;;;;10.52;5.75;;;;;;;5.18;nan;102171.03;5035463;28;20037;-85
2023/10/17 01:52:58;;;;;;;12.45;5.85;;;;;;;5.18;nan;102174.53;5017939;28;20366;-85
2023/10/17 01:55:27;;;;;;;9.77;6.22;;;;;;;5.18;nan;102171.91;5035313;28;20069;-85
2023/10/17 01:57:59;;;;;;;12.13;5.68;;;;;;;5.18;nan;102171.91;5035526;28;20033;-84
2023/10/17 02:03:03;;;;;;;16.13;6.55;;;;;;;5.18;nan;102157.81;5035210;28;20124;-84
2023/10/17 02:05:28;;;;;;;14.35;5.93;;;;;;;5.17;nan;102166.69;5034658;28;20471;-84
2023/10/17 02:07:56;;;;;;;18.27;6.20;;;;;;;5.16;nan;102170.25;5035123;28;20120;-84
2023/10/17 02:10:24;;;;;;;11.50;5.63;;;;;;;5.14;nan;102166.84;5034616;28;20041;-84
2023/10/17 02:12:50;;;;;;;13.02;5.75;;;;;;;5.11;nan;102160.75;5035044;28;20129;-84
2023/10/17 02:15:19;;;;;;;11.77;6.07;;;;;;;5.11;nan;102165.19;5034621;28;20032;-84
2023/10/17 02:17:48;;;;;;;12.93;5.70;;;;;;;5.09;nan;102157.34;5034703;28;20072;-84
2023/10/17 02:23:08;;;;;;;16.73;6.10;;;;;;;5.08;nan;102152.13;5035091;28;20454;-84
2023/10/17 02:25:35;;;;;;;10.13;6.03;;;;;;;5.07;nan;102151.25;5034973;28;20030;-85
2023/10/17 02:28:01;;;;;;;13.57;5.93;;;;;;;5.07;nan;102151.25;5016873;28;20466;-84
2023/10/17 02:30:26;;;;;;;14.02;6.35;;;;;;;5.07;nan;102151.25;5016738;28;20030;-84
2023/10/17 02:32:53;;;;;;;10.50;6.15;;;;;;;5.09;nan;102148.56;5034650;28;20113;-84
2023/10/17 02:35:39;;;;;;;13.68;5.78;;;;;;;5.10;nan;102148.47;5034474;28;20111;-87
2023/10/17 02:38:05;;;;;;;11.20;6.00;;;;;;;5.09;nan;102153.84;5017329;28;20496;-84
2023/10/17 02:40:34;;;;;;;10.07;5.85;;;;;;;5.07;nan;102156.53;5034317;28;20041;-84
2023/10/17 02:43:00;;;;;;;10.43;5.22;;;;;;;5.07;nan;102161.81;5034631;28;20066;-84
2023/10/17 02:45:25;;;;;;;14.63;5.07;;;;;;;5.07;nan;102160.97;5016743;28;20373;-85
2023/10/17 02:47:53;;;;;;;15.48;5.68;;;;;;;5.08;nan;102168.81;5033899;28;20037;-85
2023/10/17 02:52:55;;;;;;;12.18;4.80;;;;;;;5.06;nan;102164.53;5034513;28;20466;-84
2023/10/17 02:55:24;;;;;;;10.68;4.53;;;;;;;5.04;nan;102161.13;5034438;28;20120;-84
2023/10/17 02:57:53;;;;;;;14.25;5.00;;;;;;;5.04;nan;102164.59;5017156;28;20033;-84
2023/10/17 03:00:35;;;;;;;10.50;4.57;;;;;;;5.02;nan;102163.81;5017226;28;20045;-84
2023/10/17 03:03:07;;;;;;;4.97;4.15;;;;;;;5.00;nan;102163.06;5034094;28;20029;-84
2023/10/17 03:05:32;;;;;;;9.93;4.55;;;;;;;5.00;nan;102160.41;5033969;28;20037;-85
2023/10/17 03:07:58;;;;;;;14.20;5.05;;;;;;;5.01;nan;102158.63;5016403;28;20493;-84
2023/10/17 03:10:37;;;;;;;9.07;4.90;;;;;;;4.98;nan;102153.50;5033763;28;20040;-86
2023/10/17 03:13:14;;;;;;;8.65;4.70;;;;;;;4.99;nan;102165.75;5037838;28;20053;-84
2023/10/17 03:15:46;;;;;;;11.85;5.38;;;;;;;5.00;nan;102167.44;5034541;28;20091;-85
2023/10/17 03:18:15;;;;;;;;;;;;;;;4.98;nan;102161.41;5034174;28;20520;-84
2023/10/17 03:20:41;;;;;;;15.63;5.07;;;;;;;4.98;nan;102161.41;5033640;28;19971;-85
2023/10/17 03:23:10;;;;;;;13.48;5.07;;;;;;;4.97;nan;102167.59;5016616;28;20030;-84
2023/10/17 03:25:39;;;;;;;17.75;5.03;;;;;;;4.95;nan;102168.50;5034339;28;20041;-84
2023/10/17 03:28:13;;;;;;;12.13;4.57;;;;;;;4.97;nan;102175.50;5034015;28;20041;-85
2023/10/17 03:30:39;;;;;;;13.43;4.82;;;;;;;4.97;nan;102170.22;5016631;28;20088;-85
2023/10/17 03:33:14;;;;;;;17.38;5.38;;;;;;;4.95;nan;102162.38;5034278;28;20362;-84
2023/10/17 03:38:30;;;;;;;8.23;4.68;;;;;;;4.95;nan;102162.38;5033979;28;20441;-84
2023/10/17 03:41:02;;;;;;;11.05;4.75;;;;;;;4.93;nan;102162.47;5033457;28;20045;-84
2023/10/17 03:43:37;;;;;;;;;;;;;;;4.91;nan;102172.25;5033771;28;20034;-87
2023/10/17 03:46:05;;;;;;;7.15;4.65;;;;;;;4.90;nan;102174.94;5033192;28;19909;-85
2023/10/17 03:48:36;;;;;;;9.90;4.47;;;;;;;4.91;nan;102181.91;5033977;28;20029;-85
2023/10/17 03:53:32;;;;;;;8.55;5.00;;;;;;;4.92;nan;102188.91;5033759;28;20042;-86
2023/10/17 03:56:00;;;;;;;11.63;4.57;;;;;;;4.93;nan;102180.09;5033762;28;20429;-86
2023/10/17 04:00:55;;;;;;;10.63;4.68;;;;;;;4.97;nan;102184.31;5033703;28;20053;-86
2023/10/17 04:03:25;;;;;;;12.45;4.78;;;;;;;4.98;nan;102179.88;5037071;28;20062;-85
2023/10/17 04:08:34;;;;;;;;;;;;;;;5.02;nan;102184.94;5037715;28;20041;-86
2023/10/17 04:13:50;;;;;;;12.25;4.75;;;;;;;5.05;nan;102184.78;5037884;28;20068;-85
2023/10/17 04:16:21;;;;;;;14.45;4.93;;;;;;;5.05;nan;102179.50;5037193;28;20045;-85
2023/10/17 04:18:48;;;;;;;8.13;4.38;;;;;;;5.06;nan;102175.09;5037289;28;20065;-86
2023/10/17 04:22:02;;;;;;;12.73;4.75;;;;;;;5.06;nan;102177.72;5036947;28;20455;-87
2023/10/17 04:24:01;;;;;;;11.48;4.20;;;;;;;5.08;nan;102167.97;5025834;28;20077;-85
2023/10/17 04:26:34;;;;;;;9.82;4.43;;;;;;;5.08;nan;102174.09;5036769;28;20057;-86
2023/10/17 04:29:21;;;;;;;10.00;4.40;;;;;;;5.09;nan;102175.81;5019516;28;20033;-86
2023/10/17 04:31:47;;;;;;;16.90;5.18;;;;;;;5.11;nan;102165.19;5037222;28;20026;-86
2023/10/17 04:34:18;;;;;;;10.93;4.30;;;;;;;5.11;nan;102165.19;5019247;28;20084;-86
2023/10/17 04:36:43;;;;;;;13.02;4.85;;;;;;;5.12;nan;102169.56;5037058;28;20041;-87
2023/10/17 04:39:25;;;;;;;15.70;4.00;;;;;;;5.17;nan;102167.53;5036873;28;20454;-86
2023/10/17 04:44:50;;;;;;;9.57;4.50;;;;;;;5.21;nan;102170.88;5036598;28;20133;-86
2023/10/17 04:49:51;;;;;;;6.05;4.05;;;;;;;5.19;nan;102170.09;5036357;28;20042;-86
2023/10/17 04:52:50;;;;;;;9.63;4.63;;;;;;;5.19;nan;102176.22;5020038;28;20033;-86
2023/10/17 04:55:18;;;;;;;;;;;;;;;5.17;nan;102172.81;5034728;28;20132;-86
2023/10/17 04:57:55;;;;;;;8.80;4.72;;;;;;;5.11;nan;102168.66;5036831;28;19917;-86
2023/10/17 05:03:14;;;;;;;10.18;4.65;;;;;;;5.06;nan;102156.63;5036714;28;20040;-86
2023/10/17 05:06:00;;;;;;;9.15;4.70;;;;;;;5.02;nan;102145.34;5036503;28;20030;-86
2023/10/17 05:08:32;;;;;;;9.18;4.38;;;;;;;4.99;nan;102150.78;5036180;28;20117;-86
2023/10/17 06:17:20;;;;;;;9.60;4.88;;;;;;;4.09;nan;102138.06;5035239;28;20152;-85
2023/10/17 06:19:46;;;;;;;7.30;4.65;;;;;;;4.03;nan;102135.66;5035504;28;20034;-85
2023/10/17 06:28:13;;;;;;;9.00;5.15;;;;;;;3.97;nan;102135.91;5035276;28;20443;-86
2023/10/17 06:35:13;;;;;;;15.63;6.53;;;;;;;3.87;nan;102154.75;5034668;28;20470;-86
2023/10/17 06:37:42;;;;;;;11.95;6.20;;;;;;;3.84;nan;102160.13;5034754;28;20046;-86
2023/10/17 06:40:15;;;;;;;13.40;6.30;;;;;;;3.83;nan;102154.94;5034324;28;20056;-86
2023/10/17 06:42:48;;;;;;;11.38;5.32;;;;;;;3.81;nan;102162.06;5035133;28;20374;-85
2023/10/17 06:45:18;;;;;;;10.88;6.15;;;;;;;3.81;nan;102155.00;5034632;28;20040;-85
2023/10/17 06:47:47;;;;;;;17.35;6.03;;;;;;;3.82;nan;102161.09;5016569;28;20402;-86
2023/10/17 06:55:21;;;;;;;17.38;7.25;;;;;;;3.78;nan;102160.41;5034779;28;20480;-86
2023/10/17 06:57:52;;;;;;;10.43;6.18;;;;;;;3.81;nan;102156.78;5034844;28;20037;-85
2023/10/17 07:00:25;;;;;;;11.18;6.22;;;;;;;3.82;nan;102159.34;5034011;28;20077;-86
2023/10/17 07:02:56;;;;;;;13.02;6.32;;;;;;;3.85;nan;102155.72;5034804;28;20064;-86
2023/10/17 07:05:22;;;;;;;10.15;6.70;;;;;;;3.87;nan;102149.47;5034758;28;20037;-85
2023/10/17 07:07:53;;;;;;;14.40;6.43;;;;;;;3.92;nan;102148.44;5034742;28;20044;-86
2023/10/17 07:13:32;;;;;;;15.73;7.18;;;;;;;4.03;nan;102156.72;5033623;28;20207;-86
2023/10/17 07:16:13;;;;;;;16.35;7.43;;;;;;;4.10;nan;102149.44;5034142;28;20052;-86
2023/10/17 07:23:43;;;;;;;11.85;7.00;;;;;;;4.32;nan;102152.03;5033711;28;20095;-86
2023/10/17 07:26:17;;;;;;;19.55;7.15;;;;;;;4.37;nan;102153.53;5034102;28;20044;-86
2023/10/17 07:28:45;;;;;;;14.00;7.10;;;;;;;4.47;nan;102158.41;5033741;28;20034;-85
2023/10/17 07:31:11;;;;;;;15.80;7.53;;;;;;;4.54;nan;102155.41;5033356;28;20036;-86
2023/10/17 07:33:43;;;;;;;12.05;6.75;;;;;;;4.64;nan;102155.00;5033452;28;20030;-87
2023/10/17 07:36:18;;;;;;;17.23;7.43;;;;;;;4.71;nan;102157.28;5032984;28;20041;-86
2023/10/17 07:38:45;;;;;;;14.95;7.30;;;;;;;4.82;nan;102150.69;5033519;28;20037;-85
2023/10/17 07:41:13;;;;;;;13.65;6.97;;;;;;;4.94;nan;102147.47;5015463;28;20474;-86
2023/10/17 07:43:44;;;;;;;11.82;7.10;;;;;;;5.06;nan;102138.16;5033360;28;20033;-86
2023/10/17 07:46:17;;;;;;;13.50;6.47;;;;;;;5.18;nan;102140.22;5033990;28;20505;-85
2023/10/17 07:48:48;;;;;;;12.15;6.30;;;;;;;5.30;nan;102142.28;5033390;28;20401;-87
2023/10/17 07:51:15;;;;;;;;;;;;;;;5.43;nan;102142.56;5034384;28;20077;-86
2023/10/17 07:53:47;;;;;;;12.95;5.72;;;;;;;5.53;nan;102150.03;5033038;28;19959;-86
2023/10/17 07:56:20;;;;;;;;;;;;;;;5.67;nan;102144.06;5034176;28;20064;-87
2023/10/17 07:58:58;;;;;;;13.43;5.43;;;;;;;5.79;nan;102148.75;5033732;28;19963;-86
2023/10/17 08:01:38;;;;;;;19.30;8.40;;;;;;;5.89;nan;102144.72;5033156;28;20041;-87
2023/10/17 08:06:42;;;;;;;12.15;5.80;;;;;;;6.11;nan;102146.31;5033475;28;20044;-87
2023/10/17 08:11:54;;;;;;;12.00;6.13;;;;;;;6.32;nan;102157.56;5032915;28;20033;-87
2023/10/17 08:14:22;;;;;;;18.55;6.43;;;;;;;6.43;nan;102154.38;5032697;28;20041;-87
2023/10/17 08:16:49;;;;;;;19.98;5.75;;;;;;;6.56;nan;102144.84;5015696;28;20080;-86
2023/10/17 08:19:16;;;;;;;10.60;6.57;;;;;;;6.68;nan;102160.06;5032628;28;20446;-87
2023/10/17 08:30:04;;;;;;;12.48;7.07;;;;;;;7.31;nan;102149.66;5018574;28;20045;-87
2023/10/17 08:32:39;;;;;;;12.23;6.65;;;;;;;7.47;nan;102145.19;5032954;28;20125;-86
2023/10/17 08:35:19;;;;;;;14.20;6.88;;;;;;;7.70;nan;102149.19;5033137;28;20032;-87
2023/10/17 08:37:44;;;;;;;10.93;6.28;;;;;;;7.93;nan;102152.31;5032934;28;20029;-85
2023/10/17 08:40:29;;;;;;;10.32;6.68;;;;;;;8.28;nan;102152.00;5033230;28;20056;-86
2023/10/17 08:43:19;;;;;;;9.60;6.15;;;;;;;8.71;nan;102162.69;5032823;28;20151;-87
2023/10/17 08:45:54;;;;;;;12.35;6.88;;;;;;;9.41;nan;102153.88;5015557;28;20037;-86
2023/10/17 08:48:19;;;;;;;14.63;6.50;;;;;;;10.29;nan;102145.38;5034054;28;20099;-85
2023/10/17 08:50:45;;;;;;;12.68;6.75;;;;;;;11.01;nan;102142.16;5036041;28;20150;-84
2023/10/17 08:53:21;;;;;;;12.70;6.75;;;;;;;11.79;nan;102140.03;5036261;28;20474;-84
2023/10/17 08:55:48;;;;;;;18.98;7.13;;;;;;;12.04;nan;102131.06;5036701;28;20430;-86
2023/10/17 08:58:15;;;;;;;9.82;6.00;;;;;;;12.09;nan;102138.72;5036611;28;20171;-86
2023/10/17 09:03:23;;;;;;;13.68;6.47;;;;;;;12.70;nan;102131.28;5036523;28;20482;-87
2023/10/17 09:06:07;;;;;;;9.55;6.45;;;;;;;13.37;nan;102126.84;5036619;28;20068;-86
2023/10/17 09:11:14;;;;;;;18.17;7.25;;;;;;;14.72;nan;102143.16;5020462;28;20052;-86
2023/10/17 09:16:15;;;;;;;14.65;7.05;;;;;;;15.45;nan;102128.66;5036032;28;20045;-84
2023/10/17 09:18:48;;;;;;;11.85;7.13;;;;;;;15.79;nan;102115.69;5036231;28;20030;-84
2023/10/17 09:21:16;;;;;;;16.27;7.43;;;;;;;16.22;nan;102122.41;5036029;28;20038;-85
2023/10/17 09:23:41;;;;;;;12.63;7.43;;;;;;;15.96;nan;102122.19;5018166;28;20090;-89
2023/10/17 09:26:10;;;;;;;18.35;7.38;;;;;;;15.94;nan;102120.63;5035943;28;20029;-87
2023/10/17 09:28:36;;;;;;;11.95;7.65;;;;;;;16.29;nan;102108.44;5035745;28;20048;-86
2023/10/17 09:31:06;;;;;;;14.05;7.80;;;;;;;16.59;nan;102122.59;5035781;28;20025;-87
2023/10/17 09:33:33;;;;;;;12.35;7.40;;;;;;;16.48;nan;102116.44;5018284;28;20033;-85
2023/10/17 09:36:02;;;;;;;12.90;7.50;;;;;;;16.07;nan;102126.56;5035777;28;20065;-89
2023/10/17 09:38:28;;;;;;;15.77;7.68;;;;;;;16.06;nan;102118.66;5036012;28;20040;-84
2023/10/17 09:40:59;;;;;;;15.05;7.65;;;;;;;16.33;nan;102123.25;5018275;28;20033;-85
2023/10/17 09:43:25;;;;;;;12.45;7.50;;;;;;;16.89;nan;102108.91;5035386;28;20076;-86
2023/10/17 09:45:52;;;;;;;11.25;7.35;;;;;;;17.43;nan;102102.75;5035504;28;20378;-86
2023/10/17 09:48:26;;;;;;;12.02;7.45;;;;;;;17.63;nan;102095.38;5035509;28;20100;-87
2023/10/17 09:50:56;;;;;;;15.45;7.13;;;;;;;17.64;nan;102107.81;5035669;28;20040;-86
2023/10/17 09:53:28;;;;;;;18.15;7.45;;;;;;;16.87;nan;102105.53;5035341;28;20033;-85
2023/10/17 09:55:57;;;;;;;12.52;6.50;;;;;;;16.92;nan;102099.69;5035421;28;20092;-84
2023/10/17 09:58:28;;;;;;;11.18;7.00;;;;;;;15.99;nan;102100.44;5035593;28;20029;-86
2023/10/17 10:01:05;;;;;;;13.67;8.40;;;;;;;16.25;nan;102093.59;5035320;28;20025;-88
2023/10/17 10:03:33;;;;;;;14.90;6.80;;;;;;;16.00;nan;102090.53;5035493;28;20264;-87
2023/10/17 10:06:31;;;;;;;15.02;7.13;;;;;;;15.50;nan;102095.06;5017519;28;20030;-86
2023/10/17 10:09:21;;;;;;;14.50;7.10;;;;;;;14.73;nan;102095.78;5034935;28;20036;-83
2023/10/17 10:11:52;;;;;;;14.38;7.88;;;;;;;13.80;nan;102090.31;5034881;28;20493;-83
2023/10/17 10:14:27;;;;;;;15.35;7.30;;;;;;;13.38;nan;102092.94;5035516;28;20037;-84
2023/10/17 10:17:02;;;;;;;11.48;7.22;;;;;;;12.84;nan;102098.13;5034834;28;20128;-82
2023/10/17 10:19:50;;;;;;;10.55;7.15;;;;;;;12.61;nan;102097.28;5035094;28;20458;-85
2023/10/17 10:22:17;;;;;;;13.00;6.55;;;;;;;12.31;nan;102097.91;5035361;28;20037;-82
2023/10/17 10:24:45;;;;;;;14.32;6.95;;;;;;;12.32;nan;102099.59;5034696;28;20029;-82
2023/10/17 10:27:10;;;;;;;10.38;6.45;;;;;;;12.13;nan;102098.34;5034988;28;20029;-85
2023/10/17 10:29:37;;;;;;;10.00;5.85;;;;;;;11.96;nan;102098.81;5034611;28;20071;-83
2023/10/17 10:32:06;;;;;;;14.80;6.30;;;;;;;11.79;nan;102097.38;5034274;28;20036;-84
2023/10/17 10:34:35;;;;;;;12.55;6.55;;;;;;;11.63;nan;102087.03;5034611;28;20121;-83
2023/10/17 10:37:03;;;;;;;12.55;6.38;;;;;;;11.55;nan;102084.94;5034847;28;20482;-85
2023/10/17 10:39:30;;;;;;;7.85;5.43;;;;;;;11.53;nan;102086.88;5034638;28;20037;-82
2023/10/17 10:42:00;;;;;;;8.32;5.20;;;;;;;11.51;nan;102069.28;5034301;28;20048;-83
2023/10/17 10:44:26;;;;;;;6.85;4.03;;;;;;;11.51;nan;102070.16;5034305;28;20043;-84
2023/10/17 10:46:53;;;;;;;9.15;4.88;;;;;;;11.49;nan;102064.06;5034267;28;20037;-86
2023/10/17 10:49:28;;;;;;;6.97;4.30;;;;;;;11.54;nan;102061.94;5034873;28;20485;-88
2023/10/17 10:51:57;;;;;;;6.90;4.47;;;;;;;11.57;nan;102056.38;5034173;28;20044;-87
2023/10/17 10:54:24;;;;;;;8.30;3.95;;;;;;;11.55;nan;102054.78;5034239;28;20069;-88
2023/10/17 10:56:51;;;;;;;8.05;3.80;;;;;;;11.49;nan;102053.41;5034370;28;20038;-88
2023/10/17 10:59:21;;;;;;;12.68;3.30;;;;;;;11.49;nan;102061.41;5033690;28;20036;-84
2023/10/17 11:01:49;;;;;;;6.65;3.58;;;;;;;11.42;nan;102060.16;5033960;28;20025;-87
2023/10/17 11:04:15;;;;;;;5.00;3.40;;;;;;;11.36;nan;102058.84;5034577;28;20065;-83
2023/10/17 11:06:41;;;;;;;5.43;3.38;;;;;;;11.34;nan;102055.41;5034056;28;20076;-84
2023/10/17 11:09:09;;;;;;;7.07;3.05;;;;;;;11.41;nan;102056.66;5034005;28;20037;-84
2023/10/17 11:11:46;;;;;;;5.90;3.05;;;;;;;11.45;nan;102046.63;5015998;28;20050;-86
2023/10/17 11:14:18;;;;;;;5.20;3.00;;;;;;;11.56;nan;102041.31;5034561;28;20053;-84
2023/10/17 11:16:46;;;;;;;10.27;2.58;;;;;;;11.63;nan;102034.56;5034413;28;20155;-82
2023/10/17 11:19:22;;;;;;;9.95;2.90;;;;;;;11.67;nan;102031.66;5033577;28;20385;-86
2023/10/17 11:21:52;;;;;;;3.45;2.55;;;;;;;11.66;nan;102033.50;5033766;28;20036;-83
2023/10/17 11:24:19;;;;;;;8.98;4.53;;;;;;;11.63;nan;102023.06;5033978;28;20122;-87
2023/10/17 11:26:45;;;;;;;4.45;2.30;;;;;;;11.62;nan;102024.03;5034115;28;20484;-86
2023/10/17 11:29:10;;;;;;;5.95;2.53;;;;;;;11.60;nan;102023.31;5033279;28;20037;-84
2023/10/17 11:31:36;;;;;;;2.90;2.13;;;;;;;11.54;nan;102013.09;5015650;28;20061;-83
2023/10/17 11:34:04;;;;;;;6.13;2.50;;;;;;;11.61;nan;102020.53;5033542;28;20048;-83
2023/10/17 11:36:36;;;;;;;4.35;2.50;;;;;;;11.69;nan;102011.06;5033256;28;20041;-84
2023/10/17 11:39:05;;;;;;;4.55;2.28;;;;;;;11.85;nan;102014.25;5033298;28;20374;-83
2023/10/17 11:41:39;;;;;;;11.43;2.53;;;;;;;11.99;nan;102013.22;5033379;28;20064;-84
2023/10/17 11:44:05;;;;;;;5.85;2.45;;;;;;;12.16;nan;102018.06;5033769;28;20355;-83
2023/10/17 11:46:32;;;;;;;4.07;2.80;;;;;;;12.22;nan;102008.72;5033742;28;20038;-85
2023/10/17 11:49:28;;;;;;;6.53;2.40;;;;;;;12.22;nan;102002.56;5033984;28;20037;-84
2023/10/17 11:51:59;;;;;;;7.18;2.70;;;;;;;12.24;nan;101996.16;5033755;28;20025;-84
2023/10/17 11:54:25;;;;;;;4.68;2.30;;;;;;;12.17;nan;102001.09;5033297;28;20214;-86
2023/10/17 11:56:50;;;;;;;4.90;2.78;;;;;;;12.10;nan;101996.38;5032906;28;20129;-84
2023/10/17 11:59:18;;;;;;;7.35;2.85;;;;;;;12.18;nan;101991.25;5033118;28;20065;-84
2023/10/17 12:01:47;;;;;;;5.38;2.70;;;;;;;12.14;nan;101985.34;5033694;28;20048;-85
2023/10/17 12:04:16;;;;;;;4.43;2.40;;;;;;;12.29;nan;101980.59;5016450;28;20029;-86
2023/10/17 12:06:48;;;;;;;9.13;2.50;;;;;;;12.39;nan;101970.06;5015581;28;20033;-84
2023/10/17 12:09:23;;;;;;;4.38;2.50;;;;;;;12.43;nan;101979.47;5033465;28;20457;-87
2023/10/17 12:11:53;;;;;;;5.72;2.50;;;;;;;12.52;nan;101968.09;5033219;28;20034;-85
2023/10/17 12:14:22;;;;;;;7.32;2.63;;;;;;;12.50;nan;101953.16;5033987;28;20030;-84
2023/10/17 12:16:55;;;;;;;6.85;2.70;;;;;;;12.50;nan;101956.66;5033047;28;20026;-84
2023/10/17 12:19:27;;;;;;;5.03;2.67;;;;;;;12.60;nan;101948.78;5033108;28;20033;-88
2023/10/17 12:21:53;;;;;;;3.72;2.80;;;;;;;12.77;nan;101942.03;5034067;28;20041;-84
2023/10/17 12:24:20;;;;;;;6.07;2.83;;;;;;;12.93;nan;101943.41;5037629;28;20083;-85
2023/10/17 12:26:46;;;;;;;9.57;3.30;;;;;;;13.10;nan;101936.69;5036769;28;20033;-85
2023/10/17 12:29:12;;;;;;;4.60;2.75;;;;;;;13.25;nan;101938.06;5036923;28;20037;-85
2023/10/17 12:31:41;;;;;;;4.63;2.55;;;;;;;13.63;nan;101933.97;5037231;28;20030;-85
2023/10/17 12:34:10;;;;;;;4.63;2.40;;;;;;;13.88;nan;101930.03;5036831;28;20041;-86
2023/10/17 12:36:36;;;;;;;6.43;2.88;;;;;;;14.18;nan;101925.63;5037300;28;20030;-85
2023/10/17 12:39:02;;;;;;;7.72;3.22;;;;;;;14.36;nan;101922.28;5036805;28;20026;-83
2023/10/17 12:41:30;;;;;;;4.80;2.63;;;;;;;14.92;nan;101923.50;5036532;28;20033;-83
2023/10/17 12:43:55;;;;;;;4.47;2.78;;;;;;;15.52;nan;101924.13;5036912;28;20138;-84
2023/10/17 12:46:20;;;;;;;6.00;2.70;;;;;;;15.76;nan;101914.72;5036683;28;20485;-85
2023/10/17 12:48:46;;;;;;;7.25;2.88;;;;;;;15.78;nan;101907.41;5036155;28;20029;-84
2023/10/17 12:51:12;;;;;;;5.25;3.00;;;;;;;15.75;nan;101901.44;5036453;28;20378;-84
2023/10/17 12:53:38;;;;;;;4.68;2.65;;;;;;;15.96;nan;101903.94;5036622;28;20111;-84
2023/10/17 12:56:05;;;;;;;4.55;2.90;;;;;;;16.48;nan;101901.53;5036734;28;20358;-88
2023/10/17 12:58:32;;;;;;;5.05;2.90;;;;;;;16.79;nan;101895.75;5037025;28;20418;-84
2023/10/17 13:00:58;;;;;;;5.50;2.80;;;;;;;17.31;nan;101888.81;5036466;28;20022;-88
2023/10/17 13:03:25;;;;;;;4.68;2.60;;;;;;;17.80;nan;101895.28;5036354;28;20033;-84
2023/10/17 13:05:51;;;;;;;3.88;2.20;;;;;;;17.70;nan;101894.56;5036322;28;20029;-85
2023/10/17 13:08:16;;;;;;;6.32;1.77;;;;;;;18.13;nan;101891.94;5036311;28;20022;-84
2023/10/17 13:10:42;;;;;;;5.35;2.17;;;;;;;18.42;nan;101890.66;5036116;28;20061;-88
2023/10/17 13:13:07;;;;;;;4.65;2.90;;;;;;;18.53;nan;101884.13;5036328;28;20053;-85
2023/10/17 13:15:33;;;;;;;4.88;2.40;;;;;;;18.45;nan;101880.41;5036718;28;20034;-88
2023/10/17 13:18:03;;;;;;;4.30;2.50;;;;;;;17.70;nan;101881.13;5036000;28;20034;-84
2023/10/17 13:20:28;;;;;;;5.88;2.72;;;;;;;17.76;nan;101882.31;5035937;28;20127;-85
2023/10/17 13:23:03;;;;;;;3.72;2.33;;;;;;;17.88;nan;101870.25;5018512;28;20068;-87
2023/10/17 13:25:38;;;;;;;4.95;2.35;;;;;;;17.92;nan;101862.75;5036352;28;20030;-85
2023/10/17 13:28:04;;;;;;;7.65;2.60;;;;;;;17.57;nan;101869.94;5036335;28;20034;-85
2023/10/17 13:30:31;;;;;;;5.88;2.72;;;;;;;17.26;nan;101870.47;5017929;28;20041;-88
2023/10/17 13:32:57;;;;;;;4.65;2.40;;;;;;;17.47;nan;101874.63;5035771;28;20029;-85
2023/10/17 13:35:23;;;;;;;3.85;2.13;;;;;;;17.23;nan;101860.84;5017638;28;20342;-85
2023/10/17 13:37:52;;;;;;;4.60;2.30;;;;;;;17.76;nan;101861.63;5035748;28;20104;-86
2023/10/17 13:40:23;;;;;;;5.28;2.35;;;;;;;18.12;nan;101849.84;5018437;28;20046;-83
2023/10/17 13:42:55;;;;;;;7.38;2.03;;;;;;;17.59;nan;101849.94;5035574;28;20444;-83
2023/10/17 13:45:21;;;;;;;2.72;2.05;;;;;;;17.41;nan;101844.66;5036198;28;20435;-87
2023/10/17 13:47:51;;;;;;;3.72;2.22;;;;;;;17.39;nan;101848.50;5036543;28;20454;-86
2023/10/17 13:50:18;;;;;;;3.88;2.08;;;;;;;17.78;nan;101851.56;5035706;28;20040;-90
2023/10/17 13:52:48;;;;;;;2.28;1.70;;;;;;;17.92;nan;101849.28;5036113;28;20033;-85
2023/10/17 13:55:22;;;;;;;4.00;1.95;;;;;;;18.04;nan;101847.13;5035670;28;20367;-85
2023/10/17 13:57:48;;;;;;;3.08;2.17;;;;;;;18.26;nan;101843.81;5035469;28;20037;-86
2023/10/17 14:00:21;;;;;;;3.05;2.13;;;;;;;18.19;nan;101844.66;5035380;28;20057;-85
2023/10/17 14:02:47;;;;;;;4.80;2.10;;;;;;;18.28;nan;101851.72;5035694;28;20034;-86
2023/10/17 14:05:13;;;;;;;6.45;2.35;;;;;;;18.21;nan;101845.31;5035598;28;20125;-84
2023/10/17 14:07:39;;;;;;;3.50;2.15;;;;;;;17.93;nan;101848.28;5035413;28;20113;-86
2023/10/17 14:10:09;;;;;;;3.45;1.98;;;;;;;17.56;nan;101836.00;5034972;28;20489;-84
2023/10/17 14:12:40;;;;;;;4.53;2.35;;;;;;;16.91;nan;101839.94;5034744;28;20044;-83
2023/10/17 14:15:07;;;;;;;7.57;2.33;;;;;;;16.49;nan;101836.03;5035083;28;20128;-86
2023/10/17 14:17:32;;;;;;;3.75;2.10;;;;;;;16.00;nan;101827.50;5034742;28;20029;-90
2023/10/17 14:20:05;;;;;;;2.28;1.85;;;;;;;15.42;nan;101818.72;5035455;28;20431;-88